sensor_id;sensor_type;location;lat;lon;timestamp;pressure;altitude;pressure_sealevel;temperature;humidity
71956;BME280;59829;50.562;6.258;2023-05-29T00:05:52;96159.75;;;15.33;64.40
71956;BME280;59829;50.562;6.258;2023-05-29T00:15:53;96159.31;;;15.10;64.88
71956;BME280;59829;50.562;6.258;2023-05-29T00:25:53;96159.63;;;14.97;65.49
71956;BME280;59829;50.562;6.258;2023-05-29T00:35:53;96154.47;;;14.88;66.14
71956;BME280;59829;50.562;6.258;2023-05-29T00:45:54;96157.91;;;14.78;66.87
71956;BME280;59829;50.562;6.258;2023-05-29T00:55:54;96161.03;;;14.72;67.39
71956;BME280;59829;50.562;6.258;2023-05-29T01:05:55;96160.25;;;14.62;67.92
71956;BME280;59829;50.562;6.258;2023-05-29T01:16:06;96152.66;;;14.51;68.50
71956;BME280;59829;50.562;6.258;2023-05-29T01:26:22;96150.47;;;14.37;68.92
71956;BME280;59829;50.562;6.258;2023-05-29T01:36:26;96163.50;;;14.26;69.46
71956;BME280;59829;50.562;6.258;2023-05-29T01:46:27;96152.41;;;14.06;69.97
71956;BME280;59829;50.562;6.258;2023-05-29T01:56:28;96154.25;;;13.84;70.60
71956;BME280;59829;50.562;6.258;2023-05-29T02:06:28;96168.31;;;13.71;71.33
71956;BME280;59829;50.562;6.258;2023-05-29T02:16:29;96178.34;;;13.54;72.01
71956;BME280;59829;50.562;6.258;2023-05-29T02:26:29;96170.41;;;13.37;72.51
71956;BME280;59829;50.562;6.258;2023-05-29T02:36:29;96189.13;;;13.18;72.77
71956;BME280;59829;50.562;6.258;2023-05-29T02:46:30;96197.00;;;12.95;73.37
71956;BME280;59829;50.562;6.258;2023-05-29T02:56:30;96182.97;;;12.79;73.86
71956;BME280;59829;50.562;6.258;2023-05-29T03:06:30;96204.66;;;12.65;74.22
71956;BME280;59829;50.562;6.258;2023-05-29T03:16:32;96194.25;;;12.46;74.51
71956;BME280;59829;50.562;6.258;2023-05-29T03:26:32;96197.09;;;12.31;74.75
71956;BME280;59829;50.562;6.258;2023-05-29T03:36:33;96203.50;;;12.16;75.18
71956;BME280;59829;50.562;6.258;2023-05-29T03:46:33;96201.53;;;11.97;75.48
71956;BME280;59829;50.562;6.258;2023-05-29T03:56:33;96206.34;;;11.80;75.97
71956;BME280;59829;50.562;6.258;2023-05-29T04:06:35;96227.09;;;11.76;76.44
71956;BME280;59829;50.562;6.258;2023-05-29T04:16:38;96227.72;;;11.69;77.02
71956;BME280;59829;50.562;6.258;2023-05-29T04:26:38;96237.16;;;11.68;77.76
71956;BME280;59829;50.562;6.258;2023-05-29T04:36:41;96229.78;;;11.75;78.49
71956;BME280;59829;50.562;6.258;2023-05-29T04:46:44;96242.28;;;11.80;79.12
71956;BME280;59829;50.562;6.258;2023-05-29T04:56:44;96252.09;;;11.86;79.81
71956;BME280;59829;50.562;6.258;2023-05-29T05:06:44;96243.47;;;11.87;80.23
71956;BME280;59829;50.562;6.258;2023-05-29T05:16:45;96261.44;;;11.98;81.09
71956;BME280;59829;50.562;6.258;2023-05-29T05:26:45;96268.75;;;12.02;81.89
71956;BME280;59829;50.562;6.258;2023-05-29T05:36:45;96265.84;;;12.07;82.08
71956;BME280;59829;50.562;6.258;2023-05-29T05:46:46;96263.97;;;12.09;82.75
71956;BME280;59829;50.562;6.258;2023-05-29T05:56:47;96264.63;;;12.22;83.27
71956;BME280;59829;50.562;6.258;2023-05-29T06:06:47;96267.19;;;12.33;84.01
71956;BME280;59829;50.562;6.258;2023-05-29T06:16:48;96274.56;;;12.48;84.90
71956;BME280;59829;50.562;6.258;2023-05-29T06:26:48;96292.53;;;12.59;84.99
71956;BME280;59829;50.562;6.258;2023-05-29T06:36:49;96290.38;;;12.75;85.39
71956;BME280;59829;50.562;6.258;2023-05-29T06:46:49;96292.25;;;12.94;85.71
71956;BME280;59829;50.562;6.258;2023-05-29T06:56:50;96293.66;;;13.19;86.33
71956;BME280;59829;50.562;6.258;2023-05-29T07:06:50;96295.91;;;13.33;86.08
71956;BME280;59829;50.562;6.258;2023-05-29T07:16:51;96302.91;;;13.52;86.42
71956;BME280;59829;50.562;6.258;2023-05-29T07:26:52;96295.53;;;13.68;86.42
71956;BME280;59829;50.562;6.258;2023-05-29T07:37:05;96307.69;;;13.87;86.33
71956;BME280;59829;50.562;6.258;2023-05-29T07:47:07;96299.59;;;14.01;86.18
71956;BME280;59829;50.562;6.258;2023-05-29T07:57:08;96291.81;;;14.32;86.40
71956;BME280;59829;50.562;6.258;2023-05-29T08:07:09;96303.28;;;14.58;86.40
71956;BME280;59829;50.562;6.258;2023-05-29T08:17:10;96304.09;;;14.88;86.36
71956;BME280;59829;50.562;6.258;2023-05-29T08:27:10;96300.00;;;15.14;85.85
71956;BME280;59829;50.562;6.258;2023-05-29T08:37:10;96308.38;;;15.35;85.13
71956;BME280;59829;50.562;6.258;2023-05-29T08:47:11;96311.84;;;15.54;84.12
71956;BME280;59829;50.562;6.258;2023-05-29T08:57:17;96308.97;;;15.76;83.23
71956;BME280;59829;50.562;6.258;2023-05-29T09:07:18;96321.53;;;15.98;82.03
71956;BME280;59829;50.562;6.258;2023-05-29T09:17:19;96330.91;;;16.27;81.33
71956;BME280;59829;50.562;6.258;2023-05-29T09:27:21;96340.09;;;16.39;80.09
71956;BME280;59829;50.562;6.258;2023-05-29T09:37:21;96341.13;;;16.46;78.95
71956;BME280;59829;50.562;6.258;2023-05-29T09:47:22;96329.63;;;16.58;77.98
71956;BME280;59829;50.562;6.258;2023-05-29T09:57:24;96342.91;;;16.73;76.89
71956;BME280;59829;50.562;6.258;2023-05-29T10:07:27;96346.09;;;16.85;76.04
71956;BME280;59829;50.562;6.258;2023-05-29T10:17:32;96355.25;;;16.97;75.45
71956;BME280;59829;50.562;6.258;2023-05-29T10:27:33;96365.97;;;17.02;74.43
71956;BME280;59829;50.562;6.258;2023-05-29T10:37:38;96358.63;;;17.15;73.76
71956;BME280;59829;50.562;6.258;2023-05-29T10:47:40;96362.00;;;17.34;73.46
71956;BME280;59829;50.562;6.258;2023-05-29T10:57:46;96365.56;;;17.33;72.56
71956;BME280;59829;50.562;6.258;2023-05-29T11:07:55;96352.34;;;17.36;72.03
71956;BME280;59829;50.562;6.258;2023-05-29T11:18:05;96354.34;;;17.50;71.68
71956;BME280;59829;50.562;6.258;2023-05-29T11:28:08;96344.97;;;17.49;71.03
71956;BME280;59829;50.562;6.258;2023-05-29T11:38:10;96352.81;;;17.57;70.39
71956;BME280;59829;50.562;6.258;2023-05-29T11:48:10;96344.78;;;17.68;70.33
71956;BME280;59829;50.562;6.258;2023-05-29T11:58:11;96343.38;;;17.74;69.83
71956;BME280;59829;50.562;6.258;2023-05-29T12:08:11;96355.88;;;17.78;69.28
71956;BME280;59829;50.562;6.258;2023-05-29T12:18:12;96348.50;;;17.92;68.92
71956;BME280;59829;50.562;6.258;2023-05-29T12:28:16;96346.09;;;17.98;68.65
71956;BME280;59829;50.562;6.258;2023-05-29T12:38:18;96362.84;;;18.12;68.45
71956;BME280;59829;50.562;6.258;2023-05-29T12:48:19;96355.09;;;18.20;68.35
71956;BME280;59829;50.562;6.258;2023-05-29T12:58:21;96352.88;;;18.25;68.00
71956;BME280;59829;50.562;6.258;2023-05-29T13:08:22;96353.59;;;18.52;67.77
71956;BME280;59829;50.562;6.258;2023-05-29T13:18:22;96358.53;;;18.63;67.51
71956;BME280;59829;50.562;6.258;2023-05-29T13:28:22;96355.94;;;18.63;66.98
71956;BME280;59829;50.562;6.258;2023-05-29T13:38:24;96350.06;;;18.61;66.27
71956;BME280;59829;50.562;6.258;2023-05-29T13:48:24;96342.63;;;18.66;65.54
71956;BME280;59829;50.562;6.258;2023-05-29T13:58:24;96362.75;;;18.64;65.06
71956;BME280;59829;50.562;6.258;2023-05-29T14:08:25;96355.28;;;18.69;64.66
71956;BME280;59829;50.562;6.258;2023-05-29T14:18:26;96342.47;;;18.67;64.33
71956;BME280;59829;50.562;6.258;2023-05-29T14:28:26;96351.22;;;18.66;63.67
71956;BME280;59829;50.562;6.258;2023-05-29T14:38:26;96334.84;;;18.66;63.17
71956;BME280;59829;50.562;6.258;2023-05-29T14:48:27;96343.78;;;18.72;63.00
71956;BME280;59829;50.562;6.258;2023-05-29T14:58:27;96342.97;;;18.71;62.30
71956;BME280;59829;50.562;6.258;2023-05-29T15:08:29;96343.25;;;18.60;61.92
71956;BME280;59829;50.562;6.258;2023-05-29T15:18:34;96343.41;;;18.58;61.77
71956;BME280;59829;50.562;6.258;2023-05-29T15:28:34;96333.84;;;18.59;61.93
71956;BME280;59829;50.562;6.258;2023-05-29T15:38:35;96335.75;;;18.49;61.29
71956;BME280;59829;50.562;6.258;2023-05-29T15:48:35;96343.53;;;18.49;61.29
71956;BME280;59829;50.562;6.258;2023-05-29T15:58:35;96345.16;;;18.42;60.91
71956;BME280;59829;50.562;6.258;2023-05-29T16:08:36;96361.31;;;18.35;61.18
71956;BME280;59829;50.562;6.258;2023-05-29T16:18:36;96354.91;;;18.14;60.94
71956;BME280;59829;50.562;6.258;2023-05-29T16:28:37;96363.78;;;18.03;61.05
71956;BME280;59829;50.562;6.258;2023-05-29T16:38:37;96360.22;;;18.04;61.29
71956;BME280;59829;50.562;6.258;2023-05-29T16:48:37;96360.19;;;17.96;61.19
71956;BME280;59829;50.562;6.258;2023-05-29T16:58:40;96358.50;;;17.87;60.79
71956;BME280;59829;50.562;6.258;2023-05-29T17:08:40;96354.63;;;17.65;61.00
71956;BME280;59829;50.562;6.258;2023-05-29T17:18:41;96356.38;;;17.56;60.42
71956;BME280;59829;50.562;6.258;2023-05-29T17:28:41;96360.81;;;17.46;60.64
71956;BME280;59829;50.562;6.258;2023-05-29T17:38:42;96359.81;;;17.39;60.40
71956;BME280;59829;50.562;6.258;2023-05-29T17:48:42;96383.69;;;17.33;60.59
71956;BME280;59829;50.562;6.258;2023-05-29T17:58:42;96382.06;;;17.32;60.51
71956;BME280;59829;50.562;6.258;2023-05-29T18:08:43;96368.59;;;17.28;60.49
71956;BME280;59829;50.562;6.258;2023-05-29T18:18:43;96371.72;;;17.14;60.42
71956;BME280;59829;50.562;6.258;2023-05-29T18:28:44;96362.78;;;17.08;60.15
71956;BME280;59829;50.562;6.258;2023-05-29T18:38:44;96372.53;;;16.97;60.10
71956;BME280;59829;50.562;6.258;2023-05-29T18:48:45;96377.13;;;16.85;60.18
71956;BME280;59829;50.562;6.258;2023-05-29T18:58:45;96370.19;;;16.68;59.71
71956;BME280;59829;50.562;6.258;2023-05-29T19:08:46;96375.13;;;16.51;59.85
71956;BME280;59829;50.562;6.258;2023-05-29T19:18:46;96377.13;;;16.30;59.84
71956;BME280;59829;50.562;6.258;2023-05-29T19:28:47;96388.13;;;16.05;59.55
71956;BME280;59829;50.562;6.258;2023-05-29T19:38:49;96398.25;;;15.79;59.24
71956;BME280;59829;50.562;6.258;2023-05-29T19:48:50;96408.34;;;15.53;59.11
71956;BME280;59829;50.562;6.258;2023-05-29T19:58:51;96421.56;;;15.30;58.95
71956;BME280;59829;50.562;6.258;2023-05-29T20:08:53;96431.19;;;15.09;58.67
71956;BME280;59829;50.562;6.258;2023-05-29T20:18:53;96437.13;;;14.90;58.45
71956;BME280;59829;50.562;6.258;2023-05-29T20:28:54;96432.06;;;14.69;58.33
71956;BME280;59829;50.562;6.258;2023-05-29T20:38:54;96438.41;;;14.56;58.18
71956;BME280;59829;50.562;6.258;2023-05-29T20:48:54;96436.03;;;14.43;57.99
71956;BME280;59829;50.562;6.258;2023-05-29T20:58:55;96431.75;;;14.23;57.67
71956;BME280;59829;50.562;6.258;2023-05-29T21:08:55;96421.94;;;14.07;57.26
71956;BME280;59829;50.562;6.258;2023-05-29T21:18:55;96430.81;;;13.93;56.89
71956;BME280;59829;50.562;6.258;2023-05-29T21:28:56;96426.66;;;13.81;56.50
71956;BME280;59829;50.562;6.258;2023-05-29T21:38:56;96424.16;;;13.70;56.19
71956;BME280;59829;50.562;6.258;2023-05-29T21:48:56;96428.19;;;13.63;55.91
71956;BME280;59829;50.562;6.258;2023-05-29T21:58:57;96434.06;;;13.53;55.74
71956;BME280;59829;50.562;6.258;2023-05-29T22:08:57;96431.19;;;13.47;55.48
71956;BME280;59829;50.562;6.258;2023-05-29T22:18:58;96433.44;;;13.40;55.38
71956;BME280;59829;50.562;6.258;2023-05-29T22:28:58;96426.47;;;13.31;55.28
71956;BME280;59829;50.562;6.258;2023-05-29T22:38:59;96434.13;;;13.21;55.42
71956;BME280;59829;50.562;6.258;2023-05-29T22:48:59;96444.53;;;13.09;55.51
71956;BME280;59829;50.562;6.258;2023-05-29T22:58:59;96441.97;;;12.97;55.81
71956;BME280;59829;50.562;6.258;2023-05-29T23:09:00;96446.22;;;12.87;56.04
71956;BME280;59829;50.562;6.258;2023-05-29T23:19:01;96455.59;;;12.77;56.25
71956;BME280;59829;50.562;6.258;2023-05-29T23:29:02;96456.53;;;12.65;56.50
71956;BME280;59829;50.562;6.258;2023-05-29T23:39:02;96469.53;;;12.52;56.88
71956;BME280;59829;50.562;6.258;2023-05-29T23:49:05;96469.53;;;12.41;57.16
71956;BME280;59829;50.562;6.258;2023-05-29T23:59:05;96471.28;;;12.29;57.53
